Time;durP1;ratioP1;P1;durP2;ratioP2;P2;SDS_P1;SDS_P2;PMS_P1;PMS_P2;Temp;Humidity;BMP_temperature;BMP_pressure;BME280_temperature;BME280_humidity;BME280_pressure;Samples;Min_cycle;Max_cycle;Signal;HPM_P1;HPM_P2
2022/04/16 00:02:04;;;;;;;20.08;11.05;;;12.50;81.50;;;;;;5014560;28;20014;-43
2022/04/16 00:04:31;;;;;;;19.98;12.05;;;12.50;81.20;;;;;;5014480;28;20065;-46
2022/04/16 00:06:57;;;;;;;21.77;12.38;;;12.50;81.60;;;;;;5014455;28;20030;-48
2022/04/16 00:09:23;;;;;;;21.92;11.80;;;12.40;81.10;;;;;;5014341;28;20431;-53
2022/04/16 00:11:49;;;;;;;19.70;11.50;;;12.40;81.50;;;;;;5014362;28;20607;-49
2022/04/16 00:14:15;;;;;;;23.23;12.80;;;12.40;81.50;;;;;;5014424;28;20179;-45
2022/04/16 00:16:41;;;;;;;20.75;11.63;;;12.40;82.00;;;;;;5014334;28;20034;-48
2022/04/16 00:19:08;;;;;;;22.90;12.52;;;12.20;82.50;;;;;;5014361;28;20021;-43
2022/04/16 00:21:35;;;;;;;22.95;12.23;;;12.20;81.90;;;;;;4999457;28;20022;-49
2022/04/16 00:24:01;;;;;;;20.70;11.90;;;12.10;82.50;;;;;;4994519;28;20101;-47
2022/04/16 00:26:27;;;;;;;21.75;12.60;;;12.10;84.00;;;;;;4994608;28;20038;-45
2022/04/16 00:28:53;;;;;;;26.13;12.88;;;12.00;83.70;;;;;;4994640;28;20033;-48
2022/04/16 00:31:19;;;;;;;23.05;12.27;;;11.90;84.20;;;;;;4994463;28;20053;-43
2022/04/16 00:33:48;;;;;;;19.70;11.98;;;11.80;84.00;;;;;;4994429;28;20046;-46
2022/04/16 00:36:14;;;;;;;22.83;12.00;;;11.70;84.80;;;;;;4994345;28;20029;-46
2022/04/16 00:38:41;;;;;;;23.67;12.93;;;11.60;84.30;;;;;;4993753;28;20081;-43
2022/04/16 00:41:07;;;;;;;26.00;13.48;;;11.50;85.40;;;;;;4994312;28;20674;-43
2022/04/16 00:43:33;;;;;;;25.75;13.30;;;11.40;86.10;;;;;;4994303;28;20026;-43
2022/04/16 00:45:59;;;;;;;20.90;12.13;;;11.30;87.00;;;;;;4994346;28;20049;-43
2022/04/16 00:48:25;;;;;;;24.73;13.77;;;11.30;86.70;;;;;;4994317;28;20026;-46
2022/04/16 00:50:53;;;;;;;26.98;14.45;;;11.20;87.40;;;;;;5004870;28;20030;-44
2022/04/16 00:53:20;;;;;;;26.23;15.00;;;11.10;87.50;;;;;;5013671;28;20048;-49
2022/04/16 00:55:46;;;;;;;28.70;15.10;;;11.10;88.00;;;;;;5013586;28;20073;-48
2022/04/16 00:58:12;;;;;;;26.67;14.38;;;11.00;87.70;;;;;;5013589;28;20029;-47
2022/04/16 01:00:38;;;;;;;29.33;14.75;;;11.00;87.80;;;;;;5013607;28;20440;-44
2022/04/16 01:03:05;;;;;;;29.88;15.50;;;11.00;88.10;;;;;;5013527;28;20826;-54
2022/04/16 01:05:31;;;;;;;31.92;15.15;;;11.00;88.40;;;;;;5013405;28;20033;-52
2022/04/16 01:07:58;;;;;;;32.22;15.60;;;10.90;88.70;;;;;;5013436;28;20025;-45
2022/04/16 01:10:29;;;;;;;32.42;16.02;;;10.90;88.70;;;;;;5013398;28;20030;-51
2022/04/16 01:13:06;;;;;;;30.17;15.23;;;10.80;89.00;;;;;;5013409;28;20030;-48
2022/04/16 01:15:32;;;;;;;33.20;15.85;;;10.70;88.90;;;;;;5013293;28;20041;-49
2022/04/16 01:18:02;;;;;;;33.13;16.25;;;10.70;89.00;;;;;;5013156;28;20018;-46
2022/04/16 01:20:27;;;;;;;34.95;16.08;;;10.60;90.00;;;;;;5005049;28;20504;-52
2022/04/16 01:22:54;;;;;;;34.55;17.05;;;10.50;90.10;;;;;;4993436;28;20034;-46
2022/04/16 01:25:20;;;;;;;36.45;17.50;;;10.50;90.00;;;;;;4993621;28;20093;-46
2022/04/16 01:27:46;;;;;;;37.75;18.35;;;10.50;90.20;;;;;;4993457;28;20018;-43
2022/04/16 01:30:13;;;;;;;38.58;17.88;;;10.40;90.40;;;;;;4993431;28;20048;-50
2022/04/16 01:32:40;;;;;;;34.08;17.13;;;10.30;90.30;;;;;;4993292;28;20075;-46
2022/04/16 01:35:06;;;;;;;41.22;19.75;;;10.30;90.70;;;;;;4993307;28;20516;-52
2022/04/16 01:37:34;;;;;;;38.70;18.25;;;10.30;90.60;;;;;;4993391;28;20033;-44
2022/04/16 01:40:04;;;;;;;39.40;18.60;;;10.20;90.80;;;;;;4993150;28;20053;-47
2022/04/16 01:42:32;;;;;;;37.70;19.30;;;10.20;90.70;;;;;;4993111;28;20393;-47
2022/04/16 01:45:00;;;;;;;40.05;19.30;;;10.10;91.20;;;;;;4992927;28;20487;-43
2022/04/16 01:47:27;;;;;;;44.53;20.27;;;10.00;91.50;;;;;;4993346;28;20033;-43
2022/04/16 01:49:53;;;;;;;43.60;19.73;;;10.00;91.30;;;;;;4995767;28;20088;-44
2022/04/16 01:52:19;;;;;;;45.30;20.65;;;9.90;91.50;;;;;;5012357;28;20050;-43
2022/04/16 01:54:45;;;;;;;50.63;23.80;;;9.90;91.60;;;;;;5012517;28;20097;-48
2022/04/16 01:57:10;;;;;;;54.47;24.42;;;9.90;91.70;;;;;;5012412;28;20033;-48
2022/04/16 01:59:36;;;;;;;61.13;25.10;;;10.00;91.80;;;;;;5012504;28;20056;-46
2022/04/16 02:02:02;;;;;;;61.60;24.95;;;10.00;91.90;;;;;;5012535;28;20425;-48
2022/04/16 02:04:28;;;;;;;62.28;24.60;;;10.00;91.80;;;;;;5012355;28;20026;-46
2022/04/16 02:06:54;;;;;;;56.95;25.52;;;9.90;91.90;;;;;;5012404;28;20121;-46
2022/04/16 02:09:19;;;;;;;56.95;24.27;;;9.90;91.90;;;;;;5012162;28;20165;-45
2022/04/16 02:11:45;;;;;;;58.85;24.90;;;9.80;92.10;;;;;;5012150;28;20176;-46
2022/04/16 02:14:10;;;;;;;63.55;25.27;;;9.80;92.00;;;;;;5012074;28;20022;-45
2022/04/16 02:16:36;;;;;;;54.30;24.13;;;9.80;91.90;;;;;;5012047;28;20433;-49
2022/04/16 02:19:02;;;;;;;55.97;24.27;;;9.70;91.70;;;;;;5012172;28;20109;-45
2022/04/16 02:21:30;;;;;;;57.17;25.48;;;9.70;91.80;;;;;;4996187;28;20041;-47
2022/04/16 02:23:57;;;;;;;54.97;24.20;;;9.70;91.90;;;;;;4992180;28;20422;-44
2022/04/16 02:26:24;;;;;;;55.65;24.48;;;9.60;91.90;;;;;;4992196;28;20283;-48
2022/04/16 02:28:50;;;;;;;62.67;25.27;;;9.60;92.10;;;;;;4992084;28;20026;-50
2022/04/16 02:31:15;;;;;;;56.15;24.50;;;9.60;92.20;;;;;;4991149;28;20049;-48
2022/04/16 02:33:42;;;;;;;59.58;24.95;;;9.50;92.40;;;;;;4992298;28;20034;-48
2022/04/16 02:36:08;;;;;;;57.08;25.88;;;9.40;92.40;;;;;;4992364;28;20080;-47
2022/04/16 02:38:34;;;;;;;61.10;26.92;;;9.40;92.40;;;;;;4992192;28;20080;-49
2022/04/16 02:41:00;;;;;;;64.10;25.85;;;9.40;92.50;;;;;;4992009;28;20040;-50
2022/04/16 02:43:26;;;;;;;63.47;27.20;;;9.40;92.50;;;;;;4992006;28;20116;-46
2022/04/16 02:48:35;;;;;;;68.38;27.92;;;9.30;92.50;;;;;;4992108;28;20105;-55
2022/04/16 02:51:02;;;;;;;72.93;30.05;;;9.30;92.60;;;;;;5003297;28;20124;-47
2022/04/16 02:53:29;;;;;;;70.03;28.52;;;9.30;92.80;;;;;;5011647;28;20028;-47
2022/04/16 02:55:55;;;;;;;69.25;28.25;;;9.30;92.90;;;;;;5011560;28;20068;-52
2022/04/16 02:58:22;;;;;;;63.97;26.42;;;9.20;93.00;;;;;;5010401;28;20053;-43
2022/04/16 03:00:48;;;;;;;64.00;26.77;;;9.10;93.00;;;;;;5011560;28;20093;-51
2022/04/16 03:03:14;;;;;;;63.72;28.00;;;9.10;93.30;;;;;;5009458;28;20104;-47
2022/04/16 03:05:41;;;;;;;77.25;31.25;;;9.00;93.50;;;;;;5011336;28;20508;-44
2022/04/16 03:08:07;;;;;;;76.70;32.85;;;9.00;93.60;;;;;;5002933;28;20026;-52
2022/04/16 03:10:33;;;;;;;81.60;34.30;;;9.00;93.60;;;;;;4991645;28;20026;-45
2022/04/16 03:12:59;;;;;;;83.32;36.13;;;9.00;93.70;;;;;;4991688;28;20030;-55
2022/04/16 03:18:10;;;;;;;77.90;34.50;;;9.10;93.80;;;;;;4991913;28;20030;-46
2022/04/16 03:20:40;;;;;;;88.43;38.20;;;9.10;93.80;;;;;;4991578;28;20027;-47
2022/04/16 03:23:06;;;;;;;;;;;9.10;94.00;;;;;;4992201;28;20026;-49
2022/04/16 03:25:32;;;;;;;92.75;38.30;;;9.10;93.80;;;;;;4991563;28;19982;-45
2022/04/16 03:27:58;;;;;;;93.45;40.25;;;9.10;93.80;;;;;;4991843;28;20026;-54
2022/04/16 03:30:25;;;;;;;91.40;38.55;;;9.10;93.90;;;;;;4991694;28;20062;-50
2022/04/16 03:32:51;;;;;;;82.75;36.05;;;9.10;93.90;;;;;;4991726;28;20037;-46
2022/04/16 03:35:21;;;;;;;98.75;39.70;;;9.00;93.80;;;;;;4991608;28;20050;-46
2022/04/16 03:37:47;;;;;;;88.63;38.33;;;8.90;94.10;;;;;;4991453;28;20033;-44
2022/04/16 03:40:13;;;;;;;93.72;38.88;;;8.90;94.10;;;;;;4991490;28;20026;-43
2022/04/16 03:42:50;;;;;;;77.50;36.67;;;8.90;94.00;;;;;;4991555;28;20109;-43
2022/04/16 03:45:24;;;;;;;84.07;38.42;;;8.80;94.10;;;;;;4991343;28;20039;-45
2022/04/16 03:47:51;;;;;;;82.93;38.55;;;8.80;94.30;;;;;;4991657;28;20050;-44
2022/04/16 03:50:18;;;;;;;80.75;36.08;;;8.80;94.40;;;;;;5009666;28;20056;-44
2022/04/16 03:52:46;;;;;;;75.05;35.72;;;8.70;94.50;;;;;;5011010;28;20057;-46
2022/04/16 04:00:49;;;;;;;78.18;36.75;;;8.60;94.90;;;;;;5005191;28;20030;-49
2022/04/16 04:03:16;;;;;;;88.72;39.30;;;8.50;94.90;;;;;;4991513;28;20053;-56
2022/04/16 04:05:43;;;;;;;85.43;37.97;;;8.50;94.80;;;;;;4991496;28;20117;-50
2022/04/16 04:08:09;;;;;;;79.97;37.92;;;8.50;94.70;;;;;;4991296;28;20057;-48
2022/04/16 04:10:36;;;;;;;81.75;37.13;;;8.50;94.70;;;;;;4991337;28;20042;-52
2022/04/16 04:13:03;;;;;;;88.72;40.15;;;8.50;94.70;;;;;;4991299;28;20472;-47
2022/04/16 04:15:29;;;;;;;71.80;37.35;;;8.50;94.70;;;;;;4993882;28;20045;-46
2022/04/16 04:17:56;;;;;;;84.80;36.10;;;8.50;94.50;;;;;;4996846;28;20027;-43
2022/04/16 04:20:22;;;;;;;81.97;40.00;;;8.50;94.50;;;;;;5014258;28;20096;-48
2022/04/16 04:22:47;;;;;;;73.40;36.72;;;8.40;94.60;;;;;;5014269;28;20018;-50
2022/04/16 04:25:13;;;;;;;71.75;36.10;;;8.40;94.80;;;;;;5014172;28;20113;-45
2022/04/16 04:27:39;;;;;;;73.45;35.03;;;8.30;94.90;;;;;;5014109;28;20034;-49
2022/04/16 04:30:05;;;;;;;67.63;33.85;;;8.30;94.90;;;;;;5014221;28;20045;-52
2022/04/16 04:32:31;;;;;;;60.35;32.25;;;8.30;95.00;;;;;;5014136;28;20070;-46
2022/04/16 04:34:57;;;;;;;66.78;34.63;;;8.20;95.00;;;;;;5014072;28;20065;-45
2022/04/16 04:37:23;;;;;;;77.80;37.75;;;8.10;95.20;;;;;;5014105;28;20396;-50
2022/04/16 04:39:49;;;;;;;68.10;34.83;;;8.10;95.30;;;;;;5013977;28;20180;-44
2022/04/16 04:42:30;;;;;;;61.08;32.47;;;8.10;95.10;;;;;;4997353;28;20037;-52
2022/04/16 04:44:56;;;;;;;72.00;33.67;;;8.10;95.00;;;;;;4994097;28;20096;-49
2022/04/16 04:47:22;;;;;;;68.47;34.03;;;8.10;95.10;;;;;;4994061;28;20037;-46
2022/04/16 04:49:48;;;;;;;63.63;32.08;;;8.00;95.20;;;;;;4994228;28;20018;-43
2022/04/16 04:52:26;;;;;;;63.33;32.88;;;8.00;95.10;;;;;;4994079;28;20054;-47
2022/04/16 04:54:53;;;;;;;73.13;34.75;;;8.00;95.00;;;;;;4994092;28;20088;-46
2022/04/16 04:57:18;;;;;;;60.72;30.75;;;8.00;95.10;;;;;;4994282;28;20045;-52
2022/04/16 04:59:44;;;;;;;63.53;32.63;;;8.00;95.00;;;;;;4994105;28;20026;-48
2022/04/16 05:02:10;;;;;;;61.92;32.78;;;8.00;95.10;;;;;;4994133;28;20062;-53
2022/04/16 05:04:36;;;;;;;63.88;34.05;;;8.00;95.20;;;;;;4994134;28;20487;-53
2022/04/16 05:07:03;;;;;;;62.38;33.70;;;8.00;95.10;;;;;;4993812;28;20046;-51
2022/04/16 05:09:29;;;;;;;65.72;33.47;;;8.00;95.10;;;;;;4993875;28;20027;-50
2022/04/16 05:11:55;;;;;;;64.25;34.35;;;8.00;95.20;;;;;;5005212;28;20061;-46
2022/04/16 05:14:21;;;;;;;59.53;31.75;;;8.10;94.90;;;;;;5013504;28;20045;-48
2022/04/16 05:16:47;;;;;;;54.40;29.30;;;8.10;94.70;;;;;;5013318;28;20401;-51
2022/04/16 05:19:14;;;;;;;61.55;32.20;;;8.10;94.70;;;;;;5013459;28;20053;-52
2022/04/16 05:21:40;;;;;;;67.82;32.47;;;8.10;94.60;;;;;;5013183;28;20036;-46
2022/04/16 05:24:09;;;;;;;57.97;31.15;;;8.10;94.80;;;;;;5013214;28;20034;-48
2022/04/16 05:26:35;;;;;;;60.03;31.58;;;8.10;95.20;;;;;;5012897;28;20059;-52
2022/04/16 05:29:01;;;;;;;54.88;29.23;;;8.20;94.90;;;;;;5013101;28;20101;-46
2022/04/16 05:31:30;;;;;;;52.33;29.38;;;8.20;94.80;;;;;;5013179;28;20048;-45
2022/04/16 05:36:42;;;;;;;48.25;27.52;;;8.30;94.70;;;;;;5013187;28;20096;-48
2022/04/16 05:39:08;;;;;;;58.83;29.95;;;8.40;94.70;;;;;;5013027;28;20117;-47
2022/04/16 05:41:34;;;;;;;56.08;29.60;;;8.50;94.00;;;;;;4999857;28;20485;-45
2022/04/16 05:44:01;;;;;;;53.53;29.58;;;8.40;94.00;;;;;;4991968;28;20077;-44
2022/04/16 05:46:27;;;;;;;53.80;29.88;;;8.40;93.80;;;;;;4993111;28;20493;-50
2022/04/16 05:48:52;;;;;;;57.45;29.90;;;8.40;93.80;;;;;;4998030;28;20033;-43
2022/04/16 05:51:20;;;;;;;57.20;29.80;;;8.50;93.90;;;;;;5012462;28;20099;-43
2022/04/16 05:53:49;;;;;;;55.25;29.02;;;8.60;94.00;;;;;;5012602;28;20376;-48
2022/04/16 05:56:15;;;;;;;;;;;8.70;94.20;;;;;;5012986;28;20042;-43
2022/04/16 05:58:41;;;;;;;48.13;24.08;;;8.80;93.80;;;;;;5012648;28;19905;-46
2022/04/16 06:01:08;;;;;;;47.45;24.50;;;8.80;93.20;;;;;;5012206;28;20036;-49
2022/04/16 06:03:36;;;;;;;43.80;25.15;;;8.90;93.30;;;;;;5012390;28;20026;-44
2022/04/16 06:06:03;;;;;;;51.00;27.95;;;9.00;93.20;;;;;;5012017;28;20056;-52
2022/04/16 06:08:29;;;;;;;46.05;26.00;;;9.20;93.10;;;;;;5011097;28;20032;-47
2022/04/16 06:10:54;;;;;;;41.05;22.40;;;9.30;92.90;;;;;;5010371;28;20463;-45
2022/04/16 06:13:20;;;;;;;42.47;23.60;;;9.40;92.70;;;;;;5012331;28;20384;-48
2022/04/16 06:15:46;;;;;;;46.85;24.30;;;9.50;92.30;;;;;;5011835;28;20393;-44
2022/04/16 06:18:12;;;;;;;38.45;22.40;;;9.60;92.10;;;;;;5011216;28;20056;-48
2022/04/16 06:20:38;;;;;;;44.35;25.15;;;9.80;92.00;;;;;;5003310;28;20113;-48
2022/04/16 06:23:05;;;;;;;49.33;27.58;;;9.80;92.00;;;;;;5006712;28;20037;-44
2022/04/16 06:25:31;;;;;;;43.72;25.23;;;10.00;91.70;;;;;;5011813;28;20034;-47
2022/04/16 06:27:57;;;;;;;47.47;27.17;;;10.10;91.90;;;;;;5003871;28;20120;-47
2022/04/16 06:30:22;;;;;;;45.13;26.13;;;10.30;91.40;;;;;;4995199;28;20097;-43
2022/04/16 06:32:48;;;;;;;45.70;26.73;;;10.50;91.20;;;;;;5002701;28;20025;-44
2022/04/16 06:35:14;;;;;;;41.03;24.08;;;11.10;91.10;;;;;;5010727;28;20040;-46
2022/04/16 06:37:43;;;;;;;39.50;23.65;;;12.30;90.00;;;;;;5010500;28;20026;-49
2022/04/16 06:40:10;;;;;;;36.35;21.70;;;13.80;84.40;;;;;;5010701;28;20527;-46
2022/04/16 06:42:37;;;;;;;42.50;24.17;;;15.40;78.10;;;;;;4994993;28;20120;-44
2022/04/16 06:45:05;;;;;;;34.90;22.33;;;16.80;71.20;;;;;;5011496;28;20030;-49
2022/04/16 06:47:30;;;;;;;31.23;21.27;;;17.60;66.30;;;;;;5010564;28;20034;-46
2022/04/16 06:49:56;;;;;;;27.17;18.98;;;18.30;64.30;;;;;;5009553;28;20124;-50
2022/04/16 06:52:22;;;;;;;30.73;22.90;;;19.00;59.70;;;;;;5011372;28;20046;-54
2022/04/16 06:54:48;;;;;;;32.05;23.10;;;19.10;57.10;;;;;;5011554;28;20029;-47
2022/04/16 06:57:14;;;;;;;34.78;25.73;;;18.60;58.20;;;;;;5011542;28;20452;-52
2022/04/16 06:59:41;;;;;;;33.13;23.77;;;18.40;57.70;;;;;;5011072;28;20046;-47
2022/04/16 07:02:09;;;;;;;37.80;25.77;;;18.60;58.90;;;;;;5011492;28;20034;-44
2022/04/16 07:04:34;;;;;;;37.20;27.00;;;19.20;58.60;;;;;;5010495;28;20067;-46
2022/04/16 07:07:00;;;;;;;34.13;25.58;;;19.80;58.20;;;;;;5010597;28;20487;-47
2022/04/16 07:09:26;;;;;;;32.67;22.42;;;20.60;56.00;;;;;;5007673;28;20460;-50
2022/04/16 07:11:52;;;;;;;32.92;25.15;;;21.70;54.40;;;;;;4993792;28;20109;-47
2022/04/16 07:14:18;;;;;;;34.10;25.83;;;22.50;50.90;;;;;;4991551;28;20105;-47
2022/04/16 07:16:44;;;;;;;30.52;24.65;;;23.00;46.70;;;;;;4990878;28;20023;-47
2022/04/16 07:19:10;;;;;;;32.28;26.63;;;22.90;47.80;;;;;;4991692;28;20030;-44
2022/04/16 07:21:35;;;;;;;32.15;26.80;;;23.50;46.10;;;;;;4991654;28;20034;-44
2022/04/16 07:24:01;;;;;;;35.45;29.70;;;23.60;46.00;;;;;;4990058;28;20022;-47
2022/04/16 07:26:27;;;;;;;32.08;27.17;;;23.60;43.00;;;;;;4989609;28;20122;-49
2022/04/16 07:28:52;;;;;;;37.85;30.48;;;22.80;46.20;;;;;;4989526;28;20062;-47
2022/04/16 07:31:18;;;;;;;35.45;29.88;;;22.70;43.50;;;;;;4989626;28;20031;-46
2022/04/16 07:33:44;;;;;;;34.55;29.48;;;22.90;45.90;;;;;;4990021;28;20022;-45
2022/04/16 07:36:09;;;;;;;32.30;28.17;;;22.40;45.80;;;;;;4991119;28;20022;-45
2022/04/16 07:38:35;;;;;;;35.70;27.40;;;23.10;46.40;;;;;;4991218;28;20470;-44
2022/04/16 07:41:02;;;;;;;32.97;28.60;;;23.80;44.70;;;;;;5001419;28;20026;-44
2022/04/16 07:43:33;;;;;;;33.72;28.42;;;23.90;42.40;;;;;;5010810;28;20037;-43
2022/04/16 07:45:58;;;;;;;30.92;26.10;;;24.10;43.90;;;;;;5011293;28;20030;-42
2022/04/16 07:48:24;;;;;;;31.52;26.77;;;24.70;42.90;;;;;;5012295;28;20022;-46
2022/04/16 07:50:49;;;;;;;31.52;26.27;;;24.80;43.20;;;;;;5014735;28;20034;-46
2022/04/16 07:53:15;;;;;;;32.60;26.40;;;25.20;42.30;;;;;;5014958;28;20033;-51
2022/04/16 07:55:41;;;;;;;34.75;28.85;;;25.80;40.00;;;;;;5014925;28;20072;-48
2022/04/16 07:58:06;;;;;;;32.05;28.65;;;25.30;40.10;;;;;;5014493;28;20120;-44
2022/04/16 08:00:32;;;;;;;33.13;28.55;;;25.50;39.80;;;;;;5014867;28;20025;-46
2022/04/16 08:02:58;;;;;;;32.65;29.13;;;25.60;39.30;;;;;;5013238;28;20433;-44
2022/04/16 08:05:23;;;;;;;30.65;27.33;;;25.90;38.20;;;;;;5014430;28;20552;-45
2022/04/16 08:07:49;;;;;;;31.33;27.92;;;26.20;37.20;;;;;;5014498;28;20037;-47
2022/04/16 08:10:15;;;;;;;29.88;26.63;;;26.50;38.60;;;;;;5008230;28;20088;-43
2022/04/16 08:12:41;;;;;;;30.33;26.38;;;27.20;38.80;;;;;;4994898;28;20113;-49
2022/04/16 08:15:09;;;;;;;30.60;27.50;;;27.20;37.40;;;;;;4994795;28;20069;-44
2022/04/16 08:17:37;;;;;;;32.75;28.08;;;26.90;38.60;;;;;;4993578;28;20026;-48
2022/04/16 08:20:04;;;;;;;31.63;28.23;;;27.20;36.10;;;;;;4994761;28;20034;-45
2022/04/16 08:22:32;;;;;;;30.52;26.95;;;27.00;36.80;;;;;;4994607;28;20436;-48
2022/04/16 08:27:43;;;;;;;31.08;27.92;;;28.00;36.20;;;;;;4994802;28;20492;-48
2022/04/16 08:30:10;;;;;;;29.90;26.80;;;27.70;35.20;;;;;;4994383;28;20026;-43
2022/04/16 08:32:37;;;;;;;28.35;25.13;;;27.20;35.60;;;;;;4994499;28;20026;-44
2022/04/16 08:35:03;;;;;;;26.75;24.05;;;27.70;37.20;;;;;;4994531;28;20034;-43
2022/04/16 08:37:29;;;;;;;26.73;24.02;;;28.70;36.70;;;;;;4994444;28;20065;-52
2022/04/16 08:39:55;;;;;;;29.08;25.88;;;28.50;34.30;;;;;;4997543;28;20022;-45
2022/04/16 08:42:22;;;;;;;27.10;24.40;;;28.60;33.40;;;;;;5014155;28;20060;-44
2022/04/16 08:44:48;;;;;;;28.38;25.38;;;28.70;33.80;;;;;;5013823;28;20025;-49
2022/04/16 08:47:14;;;;;;;24.25;21.75;;;28.10;34.50;;;;;;5013982;28;20124;-49
2022/04/16 08:49:41;;;;;;;27.25;24.63;;;28.80;36.30;;;;;;5013810;28;20112;-46
2022/04/16 08:52:08;;;;;;;26.20;23.75;;;29.00;32.80;;;;;;5013497;28;20042;-55
2022/04/16 08:54:36;;;;;;;24.60;22.05;;;28.90;34.40;;;;;;5013448;28;20026;-46
2022/04/16 08:57:01;;;;;;;23.57;21.30;;;29.00;34.00;;;;;;5013665;28;20026;-45
2022/04/16 08:59:27;;;;;;;24.17;21.88;;;29.70;33.70;;;;;;5013425;28;20025;-47
2022/04/16 09:01:53;;;;;;;24.25;21.83;;;30.30;33.30;;;;;;5012072;28;20022;-44
2022/04/16 09:04:19;;;;;;;24.15;21.90;;;30.60;31.20;;;;;;5013535;28;20026;-45
2022/04/16 09:06:58;;;;;;;25.30;21.80;;;31.00;30.00;;;;;;5013489;28;20065;-48
2022/04/16 09:09:25;;;;;;;23.23;20.83;;;30.70;30.20;;;;;;5012093;28;20022;-46
2022/04/16 09:11:51;;;;;;;25.02;22.55;;;30.60;31.40;;;;;;4993695;28;20540;-50
2022/04/16 09:14:17;;;;;;;21.35;19.15;;;30.80;29.10;;;;;;4993632;28;20034;-45
2022/04/16 09:16:42;;;;;;;24.58;22.00;;;30.80;31.60;;;;;;4993721;28;20026;-50
2022/04/16 09:19:21;;;;;;;21.65;19.60;;;29.80;29.40;;;;;;4993561;28;20034;-50
2022/04/16 09:21:47;;;;;;;22.75;20.63;;;30.50;32.00;;;;;;4993597;28;20074;-46
2022/04/16 09:24:12;;;;;;;22.67;20.48;;;30.60;30.60;;;;;;4993477;28;20022;-47
2022/04/16 09:26:39;;;;;;;19.92;17.85;;;30.50;30.00;;;;;;4993421;28;20038;-44
2022/04/16 09:29:14;;;;;;;19.40;17.42;;;31.20;29.60;;;;;;4993540;28;20033;-50
2022/04/16 09:31:43;;;;;;;21.13;19.02;;;31.60;29.70;;;;;;4993358;28;20018;-43
2022/04/16 09:34:24;;;;;;;20.73;18.42;;;30.80;29.70;;;;;;4993361;28;20030;-49
2022/04/16 09:36:50;;;;;;;18.08;16.30;;;31.60;30.50;;;;;;4993570;28;20049;-47
2022/04/16 09:39:17;;;;;;;19.08;17.13;;;32.10;29.60;;;;;;4993255;28;20027;-46
2022/04/16 09:41:47;;;;;;;20.40;16.30;;;32.20;27.70;;;;;;5012953;28;20065;-50
2022/04/16 09:44:25;;;;;;;17.65;15.95;;;31.80;27.60;;;;;;5012859;28;20518;-53
2022/04/16 09:46:52;;;;;;;18.92;17.13;;;31.30;29.50;;;;;;5012723;28;20057;-45
2022/04/16 09:49:18;;;;;;;18.50;16.70;;;31.70;29.10;;;;;;5012679;28;20064;-46
2022/04/16 09:51:46;;;;;;;20.17;18.17;;;30.30;28.50;;;;;;5012347;28;20381;-46
2022/04/16 09:54:13;;;;;;;17.38;15.60;;;30.00;29.60;;;;;;5012562;28;20512;-52
2022/04/16 09:56:41;;;;;;;20.08;17.40;;;31.20;28.70;;;;;;5012557;28;20396;-50
2022/04/16 09:59:09;;;;;;;19.65;17.65;;;30.40;27.90;;;;;;5012564;28;20026;-52
2022/04/16 10:01:38;;;;;;;19.92;17.88;;;29.70;29.50;;;;;;5012807;28;20033;-50
2022/04/16 10:04:08;;;;;;;21.08;18.88;;;28.40;28.70;;;;;;5012627;28;20026;-44
2022/04/16 10:06:34;;;;;;;20.52;18.33;;;27.90;32.50;;;;;;5012376;28;20060;-47
2022/04/16 10:09:13;;;;;;;18.60;16.75;;;28.00;31.70;;;;;;5012266;28;20037;-46
2022/04/16 10:12:59;;;;;;;17.35;15.30;;;29.50;30.80;;;;;;4992312;28;20030;-53
2022/04/16 10:14:30;;;;;;;17.45;15.68;;;30.20;32.00;;;;;;4992550;28;20485;-48
2022/04/16 10:17:16;;;;;;;18.05;16.25;;;31.50;33.00;;;;;;4992731;28;20022;-48
2022/04/16 10:19:48;;;;;;;18.13;16.33;;;31.30;28.40;;;;;;4992419;28;20359;-44
2022/04/16 10:22:24;;;;;;;18.50;15.25;;;31.10;28.20;;;;;;4992538;28;20026;-46
2022/04/16 10:24:57;;;;;;;15.93;14.32;;;30.60;27.40;;;;;;4992682;28;20034;-45
2022/04/16 10:27:26;;;;;;;15.05;13.50;;;30.80;28.90;;;;;;4992458;28;20042;-46
2022/04/16 10:29:54;;;;;;;13.75;11.95;;;30.10;29.10;;;;;;4992432;28;20041;-43
2022/04/16 10:32:20;;;;;;;13.07;11.73;;;31.00;30.20;;;;;;4992419;28;20030;-45
2022/04/16 10:34:46;;;;;;;15.88;13.05;;;29.00;27.70;;;;;;4991040;28;20026;-44
2022/04/16 10:37:23;;;;;;;15.25;13.63;;;29.10;28.80;;;;;;4992394;28;20030;-48
2022/04/16 10:39:51;;;;;;;16.73;13.15;;;29.70;29.30;;;;;;4995755;28;20022;-44
2022/04/16 10:42:27;;;;;;;16.83;14.65;;;30.10;28.50;;;;;;5011387;28;20188;-45
2022/04/16 10:44:54;;;;;;;16.30;14.52;;;31.30;29.20;;;;;;5011654;28;20033;-47
2022/04/16 10:47:20;;;;;;;17.85;14.35;;;32.10;27.80;;;;;;4994444;28;20597;-43
2022/04/16 10:49:46;;;;;;;14.98;13.48;;;30.30;28.20;;;;;;4991976;28;20022;-45
2022/04/16 10:52:22;;;;;;;15.77;13.15;;;30.80;27.50;;;;;;4991829;28;20054;-46
2022/04/16 10:54:48;;;;;;;13.75;12.30;;;30.70;27.80;;;;;;4991847;28;20535;-42
2022/04/16 10:57:22;;;;;;;12.23;10.93;;;30.10;28.10;;;;;;4991807;28;20030;-48
2022/04/16 10:59:48;;;;;;;14.70;11.57;;;30.50;28.00;;;;;;4991984;28;20030;-45
2022/04/16 11:02:28;;;;;;;12.52;11.15;;;30.60;27.70;;;;;;4990625;28;20411;-48
2022/04/16 11:05:02;;;;;;;12.57;11.18;;;28.90;27.60;;;;;;4991985;28;20030;-44
2022/04/16 11:07:29;;;;;;;12.13;10.30;;;29.30;29.00;;;;;;5002957;28;20042;-48
2022/04/16 11:09:55;;;;;;;13.43;10.82;;;30.40;31.10;;;;;;5007974;28;20030;-44
2022/04/16 11:12:22;;;;;;;14.57;10.65;;;30.30;27.40;;;;;;5010792;28;20034;-46
2022/04/16 11:14:52;;;;;;;14.52;11.00;;;29.10;28.20;;;;;;5006902;28;20108;-44
2022/04/16 11:17:21;;;;;;;11.80;9.88;;;29.30;27.80;;;;;;5008524;28;20014;-48
2022/04/16 11:20:07;;;;;;;11.52;9.35;;;30.20;28.80;;;;;;5005739;28;20057;-44
2022/04/16 11:22:33;;;;;;;12.18;9.85;;;30.10;27.90;;;;;;5008242;28;20026;-47
2022/04/16 11:24:59;;;;;;;12.05;9.57;;;29.90;28.60;;;;;;5012785;28;20022;-50
2022/04/16 11:36:11;;;;;;;10.23;8.40;;;29.80;26.50;;;;;;5013457;28;20121;-51
2022/04/16 11:38:39;;;;;;;11.90;8.57;;;28.70;27.60;;;;;;5007985;28;20492;-46
2022/04/16 11:41:06;;;;;;;10.38;7.20;;;28.60;27.60;;;;;;5013573;28;20118;-43
2022/04/16 11:43:33;;;;;;;10.10;7.93;;;29.10;30.60;;;;;;5013727;28;20510;-47
2022/04/16 11:46:01;;;;;;;10.07;8.05;;;29.70;30.00;;;;;;5011915;28;20045;-45
2022/04/16 11:48:27;;;;;;;10.30;8.15;;;29.40;27.60;;;;;;5013574;28;20069;-50
2022/04/16 11:50:53;;;;;;;8.63;7.72;;;30.60;27.70;;;;;;5013091;28;20476;-43
2022/04/16 11:53:19;;;;;;;11.98;9.05;;;30.40;26.10;;;;;;5028378;28;20366;-51
2022/04/16 11:55:49;;;;;;;9.57;8.10;;;29.30;27.50;;;;;;5013228;28;20025;-46
2022/04/16 11:58:15;;;;;;;10.10;7.32;;;28.70;26.20;;;;;;5011575;28;20045;-52
2022/04/16 12:00:51;;;;;;;10.65;7.47;;;28.30;29.40;;;;;;5013848;28;20022;-49
2022/04/16 12:03:18;;;;;;;8.90;6.72;;;28.70;27.20;;;;;;5014651;28;20091;-49
2022/04/16 12:05:43;;;;;;;8.20;6.97;;;28.10;27.40;;;;;;5014279;28;20026;-45
2022/04/16 12:08:10;;;;;;;8.63;6.20;;;28.40;26.50;;;;;;5011601;28;20086;-46
2022/04/16 12:10:37;;;;;;;7.32;5.53;;;28.20;27.90;;;;;;5013796;28;20030;-43
2022/04/16 12:13:11;;;;;;;10.55;6.10;;;28.00;27.40;;;;;;5013839;28;20092;-43
2022/04/16 12:15:46;;;;;;;8.27;6.20;;;27.40;27.90;;;;;;5011272;28;20200;-53
2022/04/16 12:18:18;;;;;;;9.70;5.40;;;26.50;27.30;;;;;;5010241;28;20030;-49
2022/04/16 12:20:48;;;;;;;5.93;4.50;;;27.60;26.40;;;;;;5013223;28;20033;-47
2022/04/16 12:23:20;;;;;;;7.30;5.63;;;26.50;26.20;;;;;;5012940;28;20077;-49
2022/04/16 12:25:47;;;;;;;7.63;5.75;;;26.60;27.50;;;;;;5013630;28;20033;-51
2022/04/16 12:28:14;;;;;;;7.75;5.10;;;27.80;26.80;;;;;;5006764;28;20503;-47
2022/04/16 12:30:48;;;;;;;6.68;4.47;;;27.70;28.50;;;;;;5011531;28;20030;-45
2022/04/16 12:33:14;;;;;;;7.50;5.32;;;28.80;26.60;;;;;;5012887;28;20389;-44
2022/04/16 12:35:44;;;;;;;9.55;6.22;;;29.10;26.70;;;;;;5007770;28;20025;-48
2022/04/16 12:38:15;;;;;;;6.15;4.63;;;28.00;24.40;;;;;;5013378;28;20029;-50
2022/04/16 12:40:41;;;;;;;11.70;8.77;;;27.70;25.50;;;;;;5013349;28;20065;-46
2022/04/16 12:43:07;;;;;;;9.73;7.00;;;27.20;27.20;;;;;;5011387;28;20076;-46
2022/04/16 12:45:32;;;;;;;8.15;6.15;;;27.90;28.80;;;;;;5010816;28;20030;-46
2022/04/16 12:47:59;;;;;;;6.13;5.30;;;28.30;27.50;;;;;;5009430;28;20029;-44
2022/04/16 12:50:26;;;;;;;11.73;9.52;;;28.80;27.80;;;;;;5012491;28;20022;-50
2022/04/16 12:52:52;;;;;;;11.40;9.48;;;27.70;30.60;;;;;;5010318;28;20053;-46
2022/04/16 12:55:18;;;;;;;12.50;9.52;;;27.30;29.90;;;;;;5010389;28;20053;-50
2022/04/16 12:57:44;;;;;;;13.77;11.10;;;26.20;30.40;;;;;;5011237;28;20440;-54
2022/04/16 13:00:11;;;;;;;12.02;10.30;;;25.70;30.70;;;;;;5012055;28;20042;-43